Huvudsida
METAR-TAF:

METAR-TAF

Flygplatser :

Bari-Paleses flygplats

Bari, Italien

latitud: 41-08N, longitud: 016-47E, höjd: 34 m

Aktuellt väderrapport

Denna rapport gjordes för 19 minuter sedan, klockan 20:50 UTC
Vind 3 kt från väst/sydväst, varierande mellan syd/sydväst och väst
Temperatur 9°C
Fuktighet 46%
Tryck 1012 hPa
Sikt 10 km eller mer
Inga moln under 1 500 m eller inga cumulonimbus

METAR: LIBD 142050Z 24003KT 200V270 CAVOK 09/M02 Q1012

Tid: 22:09 (21:09 UTC)

Väderprognos

Denna rapport gjordes för 4 timmar och 9 minuter sedan, klockan 17:00 UTC
Prognos gäller från 14 kl. 18 UTC till 15 kl. 18 UTC
Vind 8 kt från väst/nordväst
Sikt 10 km eller mer
Spridda moln på en höjd av 3000 ft
Blir
från 15 kl. 12 UTC till 15 kl. 14 UTC
Vind 10 kt från sydost

TAF: LIBD 141700Z 1418/1518 30008KT 9999 SCT030 BECMG 1512/1514 14010KT

Aktuella väderrapporter och prognoser från 4000 flygplatser (METAR- och TAF-rapporter).

De tillgängliga stationerna syns som gula och röda prickar på kartan.

För musen över prickarna för att se namnen på stationerna.

Klicka sedan för att få väderrapporter och prognoser.

För att ändra kartan: Klicka på de gröna knapparna med ett svart kors på för att zooma in; den gröna knappen med ett streck på för att zooma ut; eller på de gröna pilarna för angränsande kartor.


METAR-TAF: